This is the latest recevied weather packets stored in our database for station/object EA2AFZ-W. If no packets are shown the sender has not sent any weather packets the latest 10 day(s).
| Time | Temp. | Humidity | Pressure | Rain* | Wind** | Luminosity | Snow |
|---|---|---|---|---|---|---|---|
| 1777497330 | 16.67° C | 79% | 1010 hPa | 0 mm | - | - | - |
| 1777495527 | 16.67° C | 75% | 1010 hPa | 0 mm | - | - | - |
| 1777493725 | 16.67° C | 69% | 1009 hPa | 0 mm | - | - | - |
| 1777491921 | 17.78° C | 68% | 1009 hPa | 0 mm | - | - | - |
| 1777490119 | 18.33° C | 75% | 1007 hPa | 0 mm | - | - | - |
| 1777488317 | 18.89° C | 76% | 1007 hPa | 0 mm | - | - | - |
| 1777486514 | 18.89° C | 77% | 1007 hPa | 0 mm | - | - | - |
| 1777484710 | 18.33° C | 81% | 1007 hPa | 0 mm | - | - | - |
| 1777482908 | 19.44° C | 81% | 1006 hPa | 0 mm | - | - | - |
| 1777481165 | 20.56° C | 80% | 1006 hPa | 0 mm | - | - | - |
| 1777479363 | 20° C | 70% | 1006 hPa | 0 mm | - | - | - |
| 1777477560 | 22.22° C | 49% | 1006 hPa | 0 mm | - | - | - |
| 1777475758 | 21.67° C | 49% | 1007 hPa | 0 mm | - | - | - |
| 1777473955 | 21.67° C | 50% | 1007 hPa | 0 mm | - | - | - |
| 1777472152 | 21.67° C | 48% | 1007 hPa | 0 mm | - | - | - |
| 1777470350 | 21.67° C | 43% | 1007 hPa | 0 mm | - | - | - |
| 1777468548 | 21.67° C | 43% | 1006 hPa | 0 mm | - | - | - |
| 1777466745 | 20° C | 57% | 1006 hPa | 0 mm | - | - | - |
| 1777464941 | 20° C | 59% | 1007 hPa | 0 mm | - | - | - |
| 1777463140 | 18.89° C | 62% | 1007 hPa | 0 mm | - | - | - |
| 1777461336 | 17.78° C | 64% | 1008 hPa | 0 mm | - | - | - |
| 1777459534 | 15.56° C | 71% | 1008 hPa | 0 mm | - | - | - |
| 1777457731 | 15° C | 75% | 1008 hPa | 0 mm | - | - | - |
| 1777455929 | 15° C | 79% | 1008 hPa | 0 mm | - | - | - |
| 1777454126 | 15° C | 78% | 1008 hPa | 0 mm | - | - | - |
* Rain latest hour (hover to see other rain measurements)
** Current wind speed in m/s (hover to see current wind gust speed)